sensor_id;sensor_type;location;lat;lon;timestamp;temperature;humidity
6496;DHT22;3281;47.658;9.166;2023-05-09T00:00:22;15.00;65.20
6496;DHT22;3281;47.658;9.166;2023-05-09T00:02:49;15.00;68.20
6496;DHT22;3281;47.658;9.166;2023-05-09T00:05:17;15.00;68.10
6496;DHT22;3281;47.658;9.166;2023-05-09T00:07:44;15.00;67.30
6496;DHT22;3281;47.658;9.166;2023-05-09T00:10:10;15.00;68.30
6496;DHT22;3281;47.658;9.166;2023-05-09T00:12:37;14.90;68.10
6496;DHT22;3281;47.658;9.166;2023-05-09T00:15:04;14.80;68.00
6496;DHT22;3281;47.658;9.166;2023-05-09T00:17:32;14.90;72.60
6496;DHT22;3281;47.658;9.166;2023-05-09T00:20:00;14.90;69.60
6496;DHT22;3281;47.658;9.166;2023-05-09T00:22:33;15.00;73.70
6496;DHT22;3281;47.658;9.166;2023-05-09T00:25:00;15.00;71.30
6496;DHT22;3281;47.658;9.166;2023-05-09T00:27:26;15.10;73.70
6496;DHT22;3281;47.658;9.166;2023-05-09T00:29:55;15.10;72.70
6496;DHT22;3281;47.658;9.166;2023-05-09T00:32:21;15.10;74.30
6496;DHT22;3281;47.658;9.166;2023-05-09T00:34:49;15.10;74.90
6496;DHT22;3281;47.658;9.166;2023-05-09T00:37:16;15.10;73.60
6496;DHT22;3281;47.658;9.166;2023-05-09T00:39:45;15.10;73.50
6496;DHT22;3281;47.658;9.166;2023-05-09T00:42:11;15.20;78.40
6496;DHT22;3281;47.658;9.166;2023-05-09T00:44:38;15.30;80.30
6496;DHT22;3281;47.658;9.166;2023-05-09T00:47:05;15.10;75.00
6496;DHT22;3281;47.658;9.166;2023-05-09T00:49:32;15.10;79.00
6496;DHT22;3281;47.658;9.166;2023-05-09T00:52:00;15.10;79.40
6496;DHT22;3281;47.658;9.166;2023-05-09T00:54:27;15.10;78.90
6496;DHT22;3281;47.658;9.166;2023-05-09T00:56:55;15.20;78.90
6496;DHT22;3281;47.658;9.166;2023-05-09T00:59:22;15.20;79.20
6496;DHT22;3281;47.658;9.166;2023-05-09T01:01:49;15.20;77.70
6496;DHT22;3281;47.658;9.166;2023-05-09T01:04:16;15.20;79.40
6496;DHT22;3281;47.658;9.166;2023-05-09T01:06:51;15.20;80.00
6496;DHT22;3281;47.658;9.166;2023-05-09T01:09:24;15.20;79.40
6496;DHT22;3281;47.658;9.166;2023-05-09T01:12:01;15.30;80.20
6496;DHT22;3281;47.658;9.166;2023-05-09T01:14:38;15.20;80.20
6496;DHT22;3281;47.658;9.166;2023-05-09T01:17:11;15.20;81.50
6496;DHT22;3281;47.658;9.166;2023-05-09T01:19:51;15.20;85.70
6496;DHT22;3281;47.658;9.166;2023-05-09T01:22:25;15.20;83.60
6496;DHT22;3281;47.658;9.166;2023-05-09T01:25:11;15.20;84.80
6496;DHT22;3281;47.658;9.166;2023-05-09T01:27:49;15.20;85.60
6496;DHT22;3281;47.658;9.166;2023-05-09T01:30:20;15.10;80.90
6496;DHT22;3281;47.658;9.166;2023-05-09T01:32:50;15.00;80.00
6496;DHT22;3281;47.658;9.166;2023-05-09T01:35:17;15.00;79.60
6496;DHT22;3281;47.658;9.166;2023-05-09T01:37:48;14.90;78.10
6496;DHT22;3281;47.658;9.166;2023-05-09T01:40:18;15.00;82.90
6496;DHT22;3281;47.658;9.166;2023-05-09T01:42:48;15.00;85.30
6496;DHT22;3281;47.658;9.166;2023-05-09T01:45:16;15.00;84.90
6496;DHT22;3281;47.658;9.166;2023-05-09T01:47:48;14.90;83.00
6496;DHT22;3281;47.658;9.166;2023-05-09T01:50:17;14.90;82.10
6496;DHT22;3281;47.658;9.166;2023-05-09T01:52:46;14.80;80.00
6496;DHT22;3281;47.658;9.166;2023-05-09T01:55:14;14.80;79.90
6496;DHT22;3281;47.658;9.166;2023-05-09T01:57:43;14.90;83.70
6496;DHT22;3281;47.658;9.166;2023-05-09T02:00:11;15.00;86.60
6496;DHT22;3281;47.658;9.166;2023-05-09T02:02:39;14.90;84.50
6496;DHT22;3281;47.658;9.166;2023-05-09T02:05:09;15.00;84.90
6496;DHT22;3281;47.658;9.166;2023-05-09T02:07:36;15.00;82.70
6496;DHT22;3281;47.658;9.166;2023-05-09T02:10:05;15.00;85.90
6496;DHT22;3281;47.658;9.166;2023-05-09T02:12:32;15.10;86.80
6496;DHT22;3281;47.658;9.166;2023-05-09T02:14:59;15.20;90.10
6496;DHT22;3281;47.658;9.166;2023-05-09T02:17:26;15.30;90.40
6496;DHT22;3281;47.658;9.166;2023-05-09T02:19:54;15.20;86.90
6496;DHT22;3281;47.658;9.166;2023-05-09T02:22:22;15.10;83.70
6496;DHT22;3281;47.658;9.166;2023-05-09T02:24:49;15.20;84.20
6496;DHT22;3281;47.658;9.166;2023-05-09T02:27:16;15.20;88.70
6496;DHT22;3281;47.658;9.166;2023-05-09T02:29:48;15.20;85.90
6496;DHT22;3281;47.658;9.166;2023-05-09T02:32:21;15.20;86.30
6496;DHT22;3281;47.658;9.166;2023-05-09T02:34:50;15.20;90.60
6496;DHT22;3281;47.658;9.166;2023-05-09T02:37:17;15.20;90.10
6496;DHT22;3281;47.658;9.166;2023-05-09T02:39:46;15.20;90.00
6496;DHT22;3281;47.658;9.166;2023-05-09T02:42:20;15.20;88.20
6496;DHT22;3281;47.658;9.166;2023-05-09T02:44:49;15.20;90.50
6496;DHT22;3281;47.658;9.166;2023-05-09T02:47:16;15.20;89.10
6496;DHT22;3281;47.658;9.166;2023-05-09T02:49:43;15.20;90.60
6496;DHT22;3281;47.658;9.166;2023-05-09T02:52:10;15.10;87.40
6496;DHT22;3281;47.658;9.166;2023-05-09T02:54:37;15.10;90.20
6496;DHT22;3281;47.658;9.166;2023-05-09T02:57:05;15.20;90.30
6496;DHT22;3281;47.658;9.166;2023-05-09T02:59:32;15.20;90.50
6496;DHT22;3281;47.658;9.166;2023-05-09T03:01:59;15.30;90.60
6496;DHT22;3281;47.658;9.166;2023-05-09T03:04:26;15.30;89.50
6496;DHT22;3281;47.658;9.166;2023-05-09T03:06:52;15.30;90.70
6496;DHT22;3281;47.658;9.166;2023-05-09T03:09:19;15.40;90.70
6496;DHT22;3281;47.658;9.166;2023-05-09T03:11:46;15.30;90.40
6496;DHT22;3281;47.658;9.166;2023-05-09T03:14:14;15.30;88.50
6496;DHT22;3281;47.658;9.166;2023-05-09T03:16:41;15.20;86.10
6496;DHT22;3281;47.658;9.166;2023-05-09T03:19:07;15.30;86.10
6496;DHT22;3281;47.658;9.166;2023-05-09T03:21:34;15.30;90.60
6496;DHT22;3281;47.658;9.166;2023-05-09T03:24:01;15.30;82.90
6496;DHT22;3281;47.658;9.166;2023-05-09T03:26:29;15.30;87.20
6496;DHT22;3281;47.658;9.166;2023-05-09T03:28:55;15.30;85.10
6496;DHT22;3281;47.658;9.166;2023-05-09T03:31:23;15.30;89.40
6496;DHT22;3281;47.658;9.166;2023-05-09T03:33:50;15.30;85.20
6496;DHT22;3281;47.658;9.166;2023-05-09T03:36:17;15.30;84.70
6496;DHT22;3281;47.658;9.166;2023-05-09T03:38:43;15.30;87.10
6496;DHT22;3281;47.658;9.166;2023-05-09T03:41:11;15.30;85.90
6496;DHT22;3281;47.658;9.166;2023-05-09T03:43:38;15.30;88.40
6496;DHT22;3281;47.658;9.166;2023-05-09T03:46:05;15.40;86.10
6496;DHT22;3281;47.658;9.166;2023-05-09T03:48:33;15.40;89.60
6496;DHT22;3281;47.658;9.166;2023-05-09T03:51:00;15.30;87.40
6496;DHT22;3281;47.658;9.166;2023-05-09T03:53:27;15.30;87.70
6496;DHT22;3281;47.658;9.166;2023-05-09T03:55:54;15.40;90.70
6496;DHT22;3281;47.658;9.166;2023-05-09T03:58:20;15.40;90.70
6496;DHT22;3281;47.658;9.166;2023-05-09T04:00:47;15.40;90.70
6496;DHT22;3281;47.658;9.166;2023-05-09T04:03:14;15.40;90.70
6496;DHT22;3281;47.658;9.166;2023-05-09T04:05:42;15.40;90.70
6496;DHT22;3281;47.658;9.166;2023-05-09T04:08:09;15.40;91.80
6496;DHT22;3281;47.658;9.166;2023-05-09T04:10:35;15.40;90.10
6496;DHT22;3281;47.658;9.166;2023-05-09T04:13:02;15.30;86.30
6496;DHT22;3281;47.658;9.166;2023-05-09T04:15:29;15.30;85.90
6496;DHT22;3281;47.658;9.166;2023-05-09T04:17:55;15.30;88.10
6496;DHT22;3281;47.658;9.166;2023-05-09T04:20:22;15.20;88.30
6496;DHT22;3281;47.658;9.166;2023-05-09T04:22:50;15.30;89.20
6496;DHT22;3281;47.658;9.166;2023-05-09T04:25:17;15.20;86.10
6496;DHT22;3281;47.658;9.166;2023-05-09T04:27:44;15.30;89.30
6496;DHT22;3281;47.658;9.166;2023-05-09T04:30:12;15.30;87.40
6496;DHT22;3281;47.658;9.166;2023-05-09T04:32:38;15.30;86.30
6496;DHT22;3281;47.658;9.166;2023-05-09T04:35:10;15.30;86.60
6496;DHT22;3281;47.658;9.166;2023-05-09T04:37:37;15.30;86.20
6496;DHT22;3281;47.658;9.166;2023-05-09T04:40:06;15.20;85.40
6496;DHT22;3281;47.658;9.166;2023-05-09T04:42:33;15.30;89.90
6496;DHT22;3281;47.658;9.166;2023-05-09T04:45:00;15.30;86.20
6496;DHT22;3281;47.658;9.166;2023-05-09T04:47:27;15.30;86.10
6496;DHT22;3281;47.658;9.166;2023-05-09T04:49:54;15.20;85.20
6496;DHT22;3281;47.658;9.166;2023-05-09T04:52:20;15.30;87.10
6496;DHT22;3281;47.658;9.166;2023-05-09T04:54:47;15.30;86.30
6496;DHT22;3281;47.658;9.166;2023-05-09T04:57:15;15.20;85.90
6496;DHT22;3281;47.658;9.166;2023-05-09T04:59:42;15.20;85.90
6496;DHT22;3281;47.658;9.166;2023-05-09T05:02:08;15.20;85.90
6496;DHT22;3281;47.658;9.166;2023-05-09T05:04:35;15.20;85.90
6496;DHT22;3281;47.658;9.166;2023-05-09T05:07:02;15.30;85.80
6496;DHT22;3281;47.658;9.166;2023-05-09T05:09:29;15.30;86.20
6496;DHT22;3281;47.658;9.166;2023-05-09T05:11:56;15.30;85.20
6496;DHT22;3281;47.658;9.166;2023-05-09T05:14:24;15.40;86.60
6496;DHT22;3281;47.658;9.166;2023-05-09T05:16:51;15.40;90.10
6496;DHT22;3281;47.658;9.166;2023-05-09T05:19:17;15.50;87.80
6496;DHT22;3281;47.658;9.166;2023-05-09T05:21:44;15.50;88.40
6496;DHT22;3281;47.658;9.166;2023-05-09T05:24:11;15.50;86.40
6496;DHT22;3281;47.658;9.166;2023-05-09T05:26:37;15.60;86.30
6496;DHT22;3281;47.658;9.166;2023-05-09T05:29:04;15.60;89.70
6496;DHT22;3281;47.658;9.166;2023-05-09T05:31:32;15.60;87.10
6496;DHT22;3281;47.658;9.166;2023-05-09T05:33:59;15.60;85.80
6496;DHT22;3281;47.658;9.166;2023-05-09T05:36:25;15.60;86.30
6496;DHT22;3281;47.658;9.166;2023-05-09T05:38:52;15.60;85.70
6496;DHT22;3281;47.658;9.166;2023-05-09T05:41:19;15.70;86.10
6496;DHT22;3281;47.658;9.166;2023-05-09T05:43:45;15.70;86.30
6496;DHT22;3281;47.658;9.166;2023-05-09T05:46:12;15.70;82.30
6496;DHT22;3281;47.658;9.166;2023-05-09T05:48:40;15.80;85.00
6496;DHT22;3281;47.658;9.166;2023-05-09T05:51:07;15.80;83.50
6496;DHT22;3281;47.658;9.166;2023-05-09T05:53:33;15.80;82.30
6496;DHT22;3281;47.658;9.166;2023-05-09T05:56:00;15.80;83.50
6496;DHT22;3281;47.658;9.166;2023-05-09T05:58:27;15.80;79.20
6496;DHT22;3281;47.658;9.166;2023-05-09T06:00:53;15.90;81.60
6496;DHT22;3281;47.658;9.166;2023-05-09T06:03:20;16.00;85.10
6496;DHT22;3281;47.658;9.166;2023-05-09T06:05:48;16.10;86.80
6496;DHT22;3281;47.658;9.166;2023-05-09T06:08:15;16.20;84.00
6496;DHT22;3281;47.658;9.166;2023-05-09T06:10:42;16.10;77.80
6496;DHT22;3281;47.658;9.166;2023-05-09T06:13:09;16.10;75.30
6496;DHT22;3281;47.658;9.166;2023-05-09T06:15:35;16.10;73.60
6496;DHT22;3281;47.658;9.166;2023-05-09T06:18:02;16.10;75.20
6496;DHT22;3281;47.658;9.166;2023-05-09T06:20:29;16.10;68.90
6496;DHT22;3281;47.658;9.166;2023-05-09T06:22:57;16.20;71.70
6496;DHT22;3281;47.658;9.166;2023-05-09T06:25:24;16.20;65.70
6496;DHT22;3281;47.658;9.166;2023-05-09T06:27:50;16.30;72.80
6496;DHT22;3281;47.658;9.166;2023-05-09T06:30:17;16.30;72.50
6496;DHT22;3281;47.658;9.166;2023-05-09T06:32:44;16.30;67.60
6496;DHT22;3281;47.658;9.166;2023-05-09T06:35:10;16.40;69.00
6496;DHT22;3281;47.658;9.166;2023-05-09T06:37:37;16.40;67.70
6496;DHT22;3281;47.658;9.166;2023-05-09T06:40:06;16.40;63.70
6496;DHT22;3281;47.658;9.166;2023-05-09T06:42:33;16.50;67.50
6496;DHT22;3281;47.658;9.166;2023-05-09T06:45:00;16.60;70.80
6496;DHT22;3281;47.658;9.166;2023-05-09T06:47:27;16.50;61.30
6496;DHT22;3281;47.658;9.166;2023-05-09T06:49:53;16.70;69.00
6496;DHT22;3281;47.658;9.166;2023-05-09T06:52:20;16.60;59.00
6496;DHT22;3281;47.658;9.166;2023-05-09T06:54:47;16.70;63.90
6496;DHT22;3281;47.658;9.166;2023-05-09T06:57:15;16.70;63.00
6496;DHT22;3281;47.658;9.166;2023-05-09T06:59:41;16.70;63.90
6496;DHT22;3281;47.658;9.166;2023-05-09T07:02:09;16.70;55.10
6496;DHT22;3281;47.658;9.166;2023-05-09T07:04:36;16.80;59.30
6496;DHT22;3281;47.658;9.166;2023-05-09T07:07:02;16.60;47.60
6496;DHT22;3281;47.658;9.166;2023-05-09T07:09:29;16.70;53.00
6496;DHT22;3281;47.658;9.166;2023-05-09T07:11:56;16.80;51.80
6496;DHT22;3281;47.658;9.166;2023-05-09T07:14:24;16.70;46.80
6496;DHT22;3281;47.658;9.166;2023-05-09T07:16:51;16.80;39.10
6496;DHT22;3281;47.658;9.166;2023-05-09T07:19:18;16.70;39.50
6496;DHT22;3281;47.658;9.166;2023-05-09T07:21:44;16.80;39.60
6496;DHT22;3281;47.658;9.166;2023-05-09T07:24:11;16.90;42.50
6496;DHT22;3281;47.658;9.166;2023-05-09T07:26:38;16.80;38.50
6496;DHT22;3281;47.658;9.166;2023-05-09T07:29:04;17.00;44.40
6496;DHT22;3281;47.658;9.166;2023-05-09T07:31:32;17.00;37.70
6496;DHT22;3281;47.658;9.166;2023-05-09T07:33:59;17.20;45.90
6496;DHT22;3281;47.658;9.166;2023-05-09T07:36:26;17.10;34.80
6496;DHT22;3281;47.658;9.166;2023-05-09T07:38:52;17.20;42.90
6496;DHT22;3281;47.658;9.166;2023-05-09T07:41:19;17.10;43.30
6496;DHT22;3281;47.658;9.166;2023-05-09T07:43:46;17.10;42.60
6496;DHT22;3281;47.658;9.166;2023-05-09T07:46:13;17.10;38.20
6496;DHT22;3281;47.658;9.166;2023-05-09T07:48:41;17.10;42.70
6496;DHT22;3281;47.658;9.166;2023-05-09T07:51:08;17.10;39.00
6496;DHT22;3281;47.658;9.166;2023-05-09T07:53:34;17.20;42.80
6496;DHT22;3281;47.658;9.166;2023-05-09T07:56:01;17.10;38.20
6496;DHT22;3281;47.658;9.166;2023-05-09T07:58:28;17.20;42.70
6496;DHT22;3281;47.658;9.166;2023-05-09T08:00:55;17.20;31.70
6496;DHT22;3281;47.658;9.166;2023-05-09T08:03:22;17.40;44.50
6496;DHT22;3281;47.658;9.166;2023-05-09T08:05:52;17.70;42.50
6496;DHT22;3281;47.658;9.166;2023-05-09T08:08:19;17.80;27.40
6496;DHT22;3281;47.658;9.166;2023-05-09T08:10:46;17.60;20.40
6496;DHT22;3281;47.658;9.166;2023-05-09T08:13:13;17.50;19.30
6496;DHT22;3281;47.658;9.166;2023-05-09T08:15:40;17.60;23.60
6496;DHT22;3281;47.658;9.166;2023-05-09T08:18:06;17.80;26.20
6496;DHT22;3281;47.658;9.166;2023-05-09T08:20:33;18.00;28.70
6496;DHT22;3281;47.658;9.166;2023-05-09T08:23:01;18.10;23.10
6496;DHT22;3281;47.658;9.166;2023-05-09T08:25:28;18.20;23.20
6496;DHT22;3281;47.658;9.166;2023-05-09T08:27:55;18.20;20.70
6496;DHT22;3281;47.658;9.166;2023-05-09T08:30:22;18.20;19.70
6496;DHT22;3281;47.658;9.166;2023-05-09T08:32:48;18.30;15.20
6496;DHT22;3281;47.658;9.166;2023-05-09T08:35:15;18.30;19.40
6496;DHT22;3281;47.658;9.166;2023-05-09T08:37:42;18.40;20.30
6496;DHT22;3281;47.658;9.166;2023-05-09T08:40:10;18.50;19.60
6496;DHT22;3281;47.658;9.166;2023-05-09T08:42:37;18.40;10.70
6496;DHT22;3281;47.658;9.166;2023-05-09T08:45:06;18.40;10.40
6496;DHT22;3281;47.658;9.166;2023-05-09T08:47:34;18.50;12.80
6496;DHT22;3281;47.658;9.166;2023-05-09T08:50:03;18.70;14.40
6496;DHT22;3281;47.658;9.166;2023-05-09T08:52:31;18.60;10.10
6496;DHT22;3281;47.658;9.166;2023-05-09T08:54:58;18.60;7.50
6496;DHT22;3281;47.658;9.166;2023-05-09T08:57:26;18.50;10.50
6496;DHT22;3281;47.658;9.166;2023-05-09T08:59:54;18.60;10.10
6496;DHT22;3281;47.658;9.166;2023-05-09T09:02:20;18.60;8.90
6496;DHT22;3281;47.658;9.166;2023-05-09T09:04:47;18.90;9.00
6496;DHT22;3281;47.658;9.166;2023-05-09T09:07:14;18.80;5.50
6496;DHT22;3281;47.658;9.166;2023-05-09T09:09:43;18.60;6.90
6496;DHT22;3281;47.658;9.166;2023-05-09T09:12:14;18.60;4.70
6496;DHT22;3281;47.658;9.166;2023-05-09T09:14:47;18.60;4.60
6496;DHT22;3281;47.658;9.166;2023-05-09T09:17:17;18.80;4.80
6496;DHT22;3281;47.658;9.166;2023-05-09T09:19:48;18.50;4.00
6496;DHT22;3281;47.658;9.166;2023-05-09T09:22:18;18.80;4.80
6496;DHT22;3281;47.658;9.166;2023-05-09T09:24:45;19.00;5.00
6496;DHT22;3281;47.658;9.166;2023-05-09T09:27:12;19.00;1.00
6496;DHT22;3281;47.658;9.166;2023-05-09T09:29:38;18.80;1.00
6496;DHT22;3281;47.658;9.166;2023-05-09T09:32:07;19.20;1.00
6496;DHT22;3281;47.658;9.166;2023-05-09T09:34:33;19.60;3.30
6496;DHT22;3281;47.658;9.166;2023-05-09T09:37:00;19.80;1.00
6496;DHT22;3281;47.658;9.166;2023-05-09T09:39:27;20.10;1.00
6496;DHT22;3281;47.658;9.166;2023-05-09T09:41:53;20.50;1.00
6496;DHT22;3281;47.658;9.166;2023-05-09T09:44:21;21.00;1.00
6496;DHT22;3281;47.658;9.166;2023-05-09T09:46:49;21.30;1.00
6496;DHT22;3281;47.658;9.166;2023-05-09T09:49:19;21.90;4.30
6496;DHT22;3281;47.658;9.166;2023-05-09T09:51:49;22.60;1.00
6496;DHT22;3281;47.658;9.166;2023-05-09T09:54:16;23.40;1.00
6496;DHT22;3281;47.658;9.166;2023-05-09T09:56:44;23.60;1.00
6496;DHT22;3281;47.658;9.166;2023-05-09T09:59:12;23.80;1.00
6496;DHT22;3281;47.658;9.166;2023-05-09T10:01:56;23.80;1.00
6496;DHT22;3281;47.658;9.166;2023-05-09T10:04:27;24.00;1.00
6496;DHT22;3281;47.658;9.166;2023-05-09T10:06:56;24.50;1.00
6496;DHT22;3281;47.658;9.166;2023-05-09T10:09:23;24.70;1.00
6496;DHT22;3281;47.658;9.166;2023-05-09T10:11:51;25.10;1.00
6496;DHT22;3281;47.658;9.166;2023-05-09T10:14:20;25.00;1.00
6496;DHT22;3281;47.658;9.166;2023-05-09T10:16:49;25.10;1.00
6496;DHT22;3281;47.658;9.166;2023-05-09T10:19:18;25.70;1.00
6496;DHT22;3281;47.658;9.166;2023-05-09T10:21:50;25.80;1.00
6496;DHT22;3281;47.658;9.166;2023-05-09T10:24:21;26.10;1.00
6496;DHT22;3281;47.658;9.166;2023-05-09T10:26:53;26.20;1.00
6496;DHT22;3281;47.658;9.166;2023-05-09T10:29:22;26.50;1.00
6496;DHT22;3281;47.658;9.166;2023-05-09T10:31:53;26.70;1.00
6496;DHT22;3281;47.658;9.166;2023-05-09T10:34:25;26.40;1.00
6496;DHT22;3281;47.658;9.166;2023-05-09T10:36:56;26.60;1.00
6496;DHT22;3281;47.658;9.166;2023-05-09T10:39:25;26.10;1.00
6496;DHT22;3281;47.658;9.166;2023-05-09T10:41:53;26.80;1.00
6496;DHT22;3281;47.658;9.166;2023-05-09T10:44:21;27.40;1.00
6496;DHT22;3281;47.658;9.166;2023-05-09T10:46:48;27.80;1.00
6496;DHT22;3281;47.658;9.166;2023-05-09T10:49:16;27.90;1.00
6496;DHT22;3281;47.658;9.166;2023-05-09T10:51:43;27.80;1.00
6496;DHT22;3281;47.658;9.166;2023-05-09T10:54:25;27.70;1.00
6496;DHT22;3281;47.658;9.166;2023-05-09T10:56:52;27.10;1.00
6496;DHT22;3281;47.658;9.166;2023-05-09T10:59:32;27.50;1.00
6496;DHT22;3281;47.658;9.166;2023-05-09T11:02:00;27.40;1.00
6496;DHT22;3281;47.658;9.166;2023-05-09T11:04:28;27.60;1.00
6496;DHT22;3281;47.658;9.166;2023-05-09T11:06:55;26.60;1.00
6496;DHT22;3281;47.658;9.166;2023-05-09T11:09:30;26.10;1.00
6496;DHT22;3281;47.658;9.166;2023-05-09T11:12:09;25.30;1.00
6496;DHT22;3281;47.658;9.166;2023-05-09T11:14:41;24.40;1.00
6496;DHT22;3281;47.658;9.166;2023-05-09T11:17:10;23.90;1.00
6496;DHT22;3281;47.658;9.166;2023-05-09T11:19:58;23.30;1.00
6496;DHT22;3281;47.658;9.166;2023-05-09T11:22:26;22.70;1.00
6496;DHT22;3281;47.658;9.166;2023-05-09T11:25:02;22.30;1.00
6496;DHT22;3281;47.658;9.166;2023-05-09T11:27:39;22.00;1.00
6496;DHT22;3281;47.658;9.166;2023-05-09T11:30:08;21.80;1.00
6496;DHT22;3281;47.658;9.166;2023-05-09T11:32:41;21.70;1.00
6496;DHT22;3281;47.658;9.166;2023-05-09T11:35:10;21.70;1.00
6496;DHT22;3281;47.658;9.166;2023-05-09T11:37:43;21.50;1.00
6496;DHT22;3281;47.658;9.166;2023-05-09T11:40:13;21.70;1.00
6496;DHT22;3281;47.658;9.166;2023-05-09T11:42:42;21.80;1.00
6496;DHT22;3281;47.658;9.166;2023-05-09T11:45:10;21.80;1.00
6496;DHT22;3281;47.658;9.166;2023-05-09T11:47:37;21.70;1.00
6496;DHT22;3281;47.658;9.166;2023-05-09T11:50:06;21.80;1.00
6496;DHT22;3281;47.658;9.166;2023-05-09T11:52:32;21.70;1.00
6496;DHT22;3281;47.658;9.166;2023-05-09T11:55:00;21.70;1.00
6496;DHT22;3281;47.658;9.166;2023-05-09T11:57:28;21.70;1.00
6496;DHT22;3281;47.658;9.166;2023-05-09T11:59:55;21.70;1.00
6496;DHT22;3281;47.658;9.166;2023-05-09T12:02:22;21.60;1.00
6496;DHT22;3281;47.658;9.166;2023-05-09T12:04:49;21.60;1.00
6496;DHT22;3281;47.658;9.166;2023-05-09T12:07:16;21.70;1.00
6496;DHT22;3281;47.658;9.166;2023-05-09T12:09:43;21.40;1.00
6496;DHT22;3281;47.658;9.166;2023-05-09T12:12:10;21.30;1.00
6496;DHT22;3281;47.658;9.166;2023-05-09T12:14:39;21.30;1.00
6496;DHT22;3281;47.658;9.166;2023-05-09T12:17:07;21.40;1.00
6496;DHT22;3281;47.658;9.166;2023-05-09T12:19:34;21.40;1.00
6496;DHT22;3281;47.658;9.166;2023-05-09T12:22:02;21.30;1.00
6496;DHT22;3281;47.658;9.166;2023-05-09T12:24:31;21.20;1.00
6496;DHT22;3281;47.658;9.166;2023-05-09T12:27:00;21.10;1.00
6496;DHT22;3281;47.658;9.166;2023-05-09T12:29:28;21.00;1.00
6496;DHT22;3281;47.658;9.166;2023-05-09T12:31:57;21.10;1.00
6496;DHT22;3281;47.658;9.166;2023-05-09T12:34:24;21.10;1.00
6496;DHT22;3281;47.658;9.166;2023-05-09T12:36:51;21.20;1.00
6496;DHT22;3281;47.658;9.166;2023-05-09T12:39:18;21.30;1.00
6496;DHT22;3281;47.658;9.166;2023-05-09T12:41:47;21.30;1.00
6496;DHT22;3281;47.658;9.166;2023-05-09T12:44:18;21.40;1.00
6496;DHT22;3281;47.658;9.166;2023-05-09T12:47:00;21.40;1.00
6496;DHT22;3281;47.658;9.166;2023-05-09T12:49:28;21.30;1.00
6496;DHT22;3281;47.658;9.166;2023-05-09T12:51:59;21.10;1.00
6496;DHT22;3281;47.658;9.166;2023-05-09T12:54:27;21.10;1.00
6496;DHT22;3281;47.658;9.166;2023-05-09T12:56:56;21.10;1.00
6496;DHT22;3281;47.658;9.166;2023-05-09T12:59:25;21.10;1.00
6496;DHT22;3281;47.658;9.166;2023-05-09T13:01:54;21.10;1.00
6496;DHT22;3281;47.658;9.166;2023-05-09T13:04:24;21.00;1.00
6496;DHT22;3281;47.658;9.166;2023-05-09T13:06:52;20.90;1.00
6496;DHT22;3281;47.658;9.166;2023-05-09T13:09:20;21.00;1.00
6496;DHT22;3281;47.658;9.166;2023-05-09T13:11:48;21.00;1.00
6496;DHT22;3281;47.658;9.166;2023-05-09T13:14:15;21.00;1.00
6496;DHT22;3281;47.658;9.166;2023-05-09T13:16:42;21.00;1.00
6496;DHT22;3281;47.658;9.166;2023-05-09T13:19:09;21.00;1.00
6496;DHT22;3281;47.658;9.166;2023-05-09T13:21:37;21.00;1.00
6496;DHT22;3281;47.658;9.166;2023-05-09T13:24:05;20.90;1.00
6496;DHT22;3281;47.658;9.166;2023-05-09T13:26:31;21.00;1.00
6496;DHT22;3281;47.658;9.166;2023-05-09T13:28:58;21.00;1.00
6496;DHT22;3281;47.658;9.166;2023-05-09T13:31:25;21.00;1.00
6496;DHT22;3281;47.658;9.166;2023-05-09T13:33:51;20.90;1.00
6496;DHT22;3281;47.658;9.166;2023-05-09T13:36:18;21.00;1.00
6496;DHT22;3281;47.658;9.166;2023-05-09T13:38:47;21.00;1.00
6496;DHT22;3281;47.658;9.166;2023-05-09T13:41:13;20.90;1.00
6496;DHT22;3281;47.658;9.166;2023-05-09T13:43:44;20.90;1.00
6496;DHT22;3281;47.658;9.166;2023-05-09T13:46:11;21.00;1.00
6496;DHT22;3281;47.658;9.166;2023-05-09T13:48:38;21.10;1.00
6496;DHT22;3281;47.658;9.166;2023-05-09T13:51:05;21.10;1.00
6496;DHT22;3281;47.658;9.166;2023-05-09T13:53:32;21.10;1.00
6496;DHT22;3281;47.658;9.166;2023-05-09T13:56:00;21.10;1.00
6496;DHT22;3281;47.658;9.166;2023-05-09T13:58:26;21.10;1.00
6496;DHT22;3281;47.658;9.166;2023-05-09T14:00:53;21.10;1.00
6496;DHT22;3281;47.658;9.166;2023-05-09T14:03:20;21.20;1.00
6496;DHT22;3281;47.658;9.166;2023-05-09T14:05:47;21.20;1.00
6496;DHT22;3281;47.658;9.166;2023-05-09T14:08:13;21.20;1.00
6496;DHT22;3281;47.658;9.166;2023-05-09T14:10:41;21.50;1.00
6496;DHT22;3281;47.658;9.166;2023-05-09T14:13:10;21.40;1.00
6496;DHT22;3281;47.658;9.166;2023-05-09T14:15:37;21.40;1.00
6496;DHT22;3281;47.658;9.166;2023-05-09T14:18:04;21.40;1.00
6496;DHT22;3281;47.658;9.166;2023-05-09T14:20:31;21.40;1.00
6496;DHT22;3281;47.658;9.166;2023-05-09T14:22:57;21.40;1.00
6496;DHT22;3281;47.658;9.166;2023-05-09T14:25:25;21.40;1.00
6496;DHT22;3281;47.658;9.166;2023-05-09T14:27:52;21.50;1.00
6496;DHT22;3281;47.658;9.166;2023-05-09T14:30:20;21.60;1.00
6496;DHT22;3281;47.658;9.166;2023-05-09T14:32:47;21.60;1.00
6496;DHT22;3281;47.658;9.166;2023-05-09T14:35:14;21.60;1.00
6496;DHT22;3281;47.658;9.166;2023-05-09T14:37:41;21.50;1.00
6496;DHT22;3281;47.658;9.166;2023-05-09T14:40:08;21.60;1.00
6496;DHT22;3281;47.658;9.166;2023-05-09T14:42:35;21.50;1.00
6496;DHT22;3281;47.658;9.166;2023-05-09T14:45:03;21.40;1.00
6496;DHT22;3281;47.658;9.166;2023-05-09T14:47:32;21.40;1.00
6496;DHT22;3281;47.658;9.166;2023-05-09T14:49:59;21.30;1.00
6496;DHT22;3281;47.658;9.166;2023-05-09T14:52:26;21.30;1.00
6496;DHT22;3281;47.658;9.166;2023-05-09T14:54:53;21.20;1.00
6496;DHT22;3281;47.658;9.166;2023-05-09T14:57:20;21.10;1.00
6496;DHT22;3281;47.658;9.166;2023-05-09T14:59:47;21.10;1.00
6496;DHT22;3281;47.658;9.166;2023-05-09T15:02:13;21.10;1.00
6496;DHT22;3281;47.658;9.166;2023-05-09T15:04:41;21.10;1.00
6496;DHT22;3281;47.658;9.166;2023-05-09T15:07:09;21.10;1.00
6496;DHT22;3281;47.658;9.166;2023-05-09T15:09:36;21.00;1.00
6496;DHT22;3281;47.658;9.166;2023-05-09T15:12:03;21.00;1.00
6496;DHT22;3281;47.658;9.166;2023-05-09T15:14:29;21.00;1.00
6496;DHT22;3281;47.658;9.166;2023-05-09T15:16:56;20.90;1.00
6496;DHT22;3281;47.658;9.166;2023-05-09T15:19:27;20.80;1.00
6496;DHT22;3281;47.658;9.166;2023-05-09T15:21:58;20.80;1.00
6496;DHT22;3281;47.658;9.166;2023-05-09T15:24:24;20.70;1.00
6496;DHT22;3281;47.658;9.166;2023-05-09T15:26:51;20.60;1.00
6496;DHT22;3281;47.658;9.166;2023-05-09T15:29:18;20.60;1.00
6496;DHT22;3281;47.658;9.166;2023-05-09T15:31:46;20.50;1.00
6496;DHT22;3281;47.658;9.166;2023-05-09T15:34:13;20.40;1.00
6496;DHT22;3281;47.658;9.166;2023-05-09T15:36:39;20.30;1.00
6496;DHT22;3281;47.658;9.166;2023-05-09T15:39:07;20.30;1.00
6496;DHT22;3281;47.658;9.166;2023-05-09T15:41:34;20.30;1.00
6496;DHT22;3281;47.658;9.166;2023-05-09T15:44:01;20.20;1.00
6496;DHT22;3281;47.658;9.166;2023-05-09T15:46:28;20.10;1.00
6496;DHT22;3281;47.658;9.166;2023-05-09T15:48:55;20.10;1.00
6496;DHT22;3281;47.658;9.166;2023-05-09T15:51:22;20.00;1.00
6496;DHT22;3281;47.658;9.166;2023-05-09T15:53:49;19.80;1.00
6496;DHT22;3281;47.658;9.166;2023-05-09T15:56:18;19.60;1.00
6496;DHT22;3281;47.658;9.166;2023-05-09T15:58:46;19.50;1.00
6496;DHT22;3281;47.658;9.166;2023-05-09T16:01:13;19.40;1.00
6496;DHT22;3281;47.658;9.166;2023-05-09T16:03:40;19.50;1.00
6496;DHT22;3281;47.658;9.166;2023-05-09T16:06:07;19.50;1.00
6496;DHT22;3281;47.658;9.166;2023-05-09T16:08:34;19.50;1.00
6496;DHT22;3281;47.658;9.166;2023-05-09T16:11:02;19.60;1.00
6496;DHT22;3281;47.658;9.166;2023-05-09T16:13:30;19.60;1.00